sensor_id;sensor_type;location;lat;lon;timestamp;temperature;humidity
12557;DHT22;6344;49.932;8.308;2022-12-10T00:02:10;1.50;99.90
12557;DHT22;6344;49.932;8.308;2022-12-10T00:04:38;1.40;99.90
12557;DHT22;6344;49.932;8.308;2022-12-10T00:07:06;1.40;99.90
12557;DHT22;6344;49.932;8.308;2022-12-10T00:09:33;1.20;99.90
12557;DHT22;6344;49.932;8.308;2022-12-10T00:12:07;1.10;99.90
12557;DHT22;6344;49.932;8.308;2022-12-10T00:14:43;1.10;99.90
12557;DHT22;6344;49.932;8.308;2022-12-10T00:17:14;1.10;99.90
12557;DHT22;6344;49.932;8.308;2022-12-10T00:19:47;1.30;99.90
12557;DHT22;6344;49.932;8.308;2022-12-10T00:22:13;1.50;99.90
12557;DHT22;6344;49.932;8.308;2022-12-10T00:24:42;1.50;99.90
12557;DHT22;6344;49.932;8.308;2022-12-10T00:27:10;1.60;99.90
12557;DHT22;6344;49.932;8.308;2022-12-10T00:29:43;1.50;99.90
12557;DHT22;6344;49.932;8.308;2022-12-10T00:32:09;1.50;99.90
12557;DHT22;6344;49.932;8.308;2022-12-10T00:34:50;1.40;99.90
12557;DHT22;6344;49.932;8.308;2022-12-10T00:37:22;1.40;99.90
12557;DHT22;6344;49.932;8.308;2022-12-10T00:39:49;1.40;99.90
12557;DHT22;6344;49.932;8.308;2022-12-10T00:42:18;1.40;99.90
12557;DHT22;6344;49.932;8.308;2022-12-10T00:44:48;1.50;99.90
12557;DHT22;6344;49.932;8.308;2022-12-10T00:47:18;1.40;99.90
12557;DHT22;6344;49.932;8.308;2022-12-10T00:49:46;1.50;99.90
12557;DHT22;6344;49.932;8.308;2022-12-10T00:52:21;1.40;99.90
12557;DHT22;6344;49.932;8.308;2022-12-10T00:54:50;1.40;99.90
12557;DHT22;6344;49.932;8.308;2022-12-10T00:57:19;1.30;99.90
12557;DHT22;6344;49.932;8.308;2022-12-10T00:59:51;1.20;99.90
12557;DHT22;6344;49.932;8.308;2022-12-10T01:02:20;1.20;99.90
12557;DHT22;6344;49.932;8.308;2022-12-10T01:04:47;1.10;99.90
12557;DHT22;6344;49.932;8.308;2022-12-10T01:07:24;1.10;99.90
12557;DHT22;6344;49.932;8.308;2022-12-10T01:10:15;1.10;99.90
12557;DHT22;6344;49.932;8.308;2022-12-10T01:12:44;1.10;99.90
12557;DHT22;6344;49.932;8.308;2022-12-10T01:15:14;1.10;99.90
12557;DHT22;6344;49.932;8.308;2022-12-10T01:17:41;1.10;99.90
12557;DHT22;6344;49.932;8.308;2022-12-10T01:20:24;1.10;99.90
12557;DHT22;6344;49.932;8.308;2022-12-10T01:22:53;1.00;99.90
12557;DHT22;6344;49.932;8.308;2022-12-10T01:25:20;1.00;99.90
12557;DHT22;6344;49.932;8.308;2022-12-10T01:27:49;1.00;99.90
12557;DHT22;6344;49.932;8.308;2022-12-10T01:30:17;1.10;99.90
12557;DHT22;6344;49.932;8.308;2022-12-10T01:32:44;1.00;99.90
12557;DHT22;6344;49.932;8.308;2022-12-10T01:35:13;1.00;99.90
12557;DHT22;6344;49.932;8.308;2022-12-10T01:37:56;1.00;99.90
12557;DHT22;6344;49.932;8.308;2022-12-10T01:40:23;0.90;99.90
12557;DHT22;6344;49.932;8.308;2022-12-10T01:42:51;0.90;99.90
12557;DHT22;6344;49.932;8.308;2022-12-10T01:45:23;1.00;99.90
12557;DHT22;6344;49.932;8.308;2022-12-10T01:47:50;0.90;99.90
12557;DHT22;6344;49.932;8.308;2022-12-10T01:50:19;0.90;99.90
12557;DHT22;6344;49.932;8.308;2022-12-10T01:52:51;0.90;99.90
12557;DHT22;6344;49.932;8.308;2022-12-10T01:55:41;0.90;99.90
12557;DHT22;6344;49.932;8.308;2022-12-10T01:58:08;0.90;99.90
12557;DHT22;6344;49.932;8.308;2022-12-10T02:00:51;0.90;99.90
12557;DHT22;6344;49.932;8.308;2022-12-10T02:03:41;0.80;99.90
12557;DHT22;6344;49.932;8.308;2022-12-10T02:06:23;0.90;99.90
12557;DHT22;6344;49.932;8.308;2022-12-10T02:08:58;0.90;99.90
12557;DHT22;6344;49.932;8.308;2022-12-10T02:11:33;0.80;99.90
12557;DHT22;6344;49.932;8.308;2022-12-10T02:14:11;0.70;99.90
12557;DHT22;6344;49.932;8.308;2022-12-10T02:16:46;0.80;99.90
12557;DHT22;6344;49.932;8.308;2022-12-10T02:19:19;0.80;99.90
12557;DHT22;6344;49.932;8.308;2022-12-10T02:21:50;0.70;99.90
12557;DHT22;6344;49.932;8.308;2022-12-10T02:24:25;0.70;99.90
12557;DHT22;6344;49.932;8.308;2022-12-10T02:27:02;0.80;99.90
12557;DHT22;6344;49.932;8.308;2022-12-10T02:29:37;0.70;99.90
12557;DHT22;6344;49.932;8.308;2022-12-10T02:32:07;0.70;99.90
12557;DHT22;6344;49.932;8.308;2022-12-10T02:34:41;0.70;99.90
12557;DHT22;6344;49.932;8.308;2022-12-10T02:37:18;0.70;99.90
12557;DHT22;6344;49.932;8.308;2022-12-10T02:39:49;0.70;99.90
12557;DHT22;6344;49.932;8.308;2022-12-10T02:42:17;0.70;99.90
12557;DHT22;6344;49.932;8.308;2022-12-10T02:44:49;0.70;99.90
12557;DHT22;6344;49.932;8.308;2022-12-10T02:47:23;0.70;99.90
12557;DHT22;6344;49.932;8.308;2022-12-10T02:49:57;0.60;99.90
12557;DHT22;6344;49.932;8.308;2022-12-10T02:52:30;0.60;99.90
12557;DHT22;6344;49.932;8.308;2022-12-10T02:55:03;0.60;99.90
12557;DHT22;6344;49.932;8.308;2022-12-10T02:57:36;0.60;99.90
12557;DHT22;6344;49.932;8.308;2022-12-10T03:00:16;0.60;99.90
12557;DHT22;6344;49.932;8.308;2022-12-10T03:03:00;0.60;99.90
12557;DHT22;6344;49.932;8.308;2022-12-10T03:05:42;0.60;99.90
12557;DHT22;6344;49.932;8.308;2022-12-10T03:08:16;0.60;99.90
12557;DHT22;6344;49.932;8.308;2022-12-10T03:10:50;0.60;99.90
12557;DHT22;6344;49.932;8.308;2022-12-10T03:13:29;0.50;99.90
12557;DHT22;6344;49.932;8.308;2022-12-10T03:16:00;0.50;99.90
12557;DHT22;6344;49.932;8.308;2022-12-10T03:18:31;0.50;99.90
12557;DHT22;6344;49.932;8.308;2022-12-10T03:21:07;0.50;99.90
12557;DHT22;6344;49.932;8.308;2022-12-10T03:23:40;0.40;99.90
12557;DHT22;6344;49.932;8.308;2022-12-10T03:26:11;0.30;99.90
12557;DHT22;6344;49.932;8.308;2022-12-10T03:28:41;0.40;99.90
12557;DHT22;6344;49.932;8.308;2022-12-10T03:31:14;0.50;99.90
12557;DHT22;6344;49.932;8.308;2022-12-10T03:33:45;0.60;99.90
12557;DHT22;6344;49.932;8.308;2022-12-10T03:36:18;0.60;99.90
12557;DHT22;6344;49.932;8.308;2022-12-10T03:38:47;0.60;99.90
12557;DHT22;6344;49.932;8.308;2022-12-10T03:41:15;0.50;99.90
12557;DHT22;6344;49.932;8.308;2022-12-10T03:43:51;0.50;99.90
12557;DHT22;6344;49.932;8.308;2022-12-10T03:46:25;0.40;99.90
12557;DHT22;6344;49.932;8.308;2022-12-10T03:48:52;0.40;99.90
12557;DHT22;6344;49.932;8.308;2022-12-10T03:51:19;0.40;99.90
12557;DHT22;6344;49.932;8.308;2022-12-10T03:53:49;0.40;99.90
12557;DHT22;6344;49.932;8.308;2022-12-10T03:56:19;0.30;99.90
12557;DHT22;6344;49.932;8.308;2022-12-10T03:58:53;0.40;99.90
12557;DHT22;6344;49.932;8.308;2022-12-10T04:01:26;0.40;99.90
12557;DHT22;6344;49.932;8.308;2022-12-10T04:03:56;0.40;99.90
12557;DHT22;6344;49.932;8.308;2022-12-10T04:06:28;0.30;99.90
12557;DHT22;6344;49.932;8.308;2022-12-10T04:08:59;0.30;99.90
12557;DHT22;6344;49.932;8.308;2022-12-10T04:11:26;0.30;99.90
12557;DHT22;6344;49.932;8.308;2022-12-10T04:13:54;0.30;99.90
12557;DHT22;6344;49.932;8.308;2022-12-10T04:16:43;0.20;99.90
12557;DHT22;6344;49.932;8.308;2022-12-10T04:19:14;0.20;99.90
12557;DHT22;6344;49.932;8.308;2022-12-10T04:21:44;0.20;99.90
12557;DHT22;6344;49.932;8.308;2022-12-10T04:24:33;0.10;99.90
12557;DHT22;6344;49.932;8.308;2022-12-10T04:27:21;0.10;99.90
12557;DHT22;6344;49.932;8.308;2022-12-10T04:29:52;0.10;99.90
12557;DHT22;6344;49.932;8.308;2022-12-10T04:32:24;0.00;99.90
12557;DHT22;6344;49.932;8.308;2022-12-10T04:34:55;0.00;99.90
12557;DHT22;6344;49.932;8.308;2022-12-10T04:37:22;-0.10;99.90
12557;DHT22;6344;49.932;8.308;2022-12-10T04:39:53;-0.10;99.90
12557;DHT22;6344;49.932;8.308;2022-12-10T04:42:21;-0.10;99.90
12557;DHT22;6344;49.932;8.308;2022-12-10T04:44:51;-0.10;99.90
12557;DHT22;6344;49.932;8.308;2022-12-10T04:47:30;-0.10;99.90
12557;DHT22;6344;49.932;8.308;2022-12-10T04:49:58;-0.20;99.90
12557;DHT22;6344;49.932;8.308;2022-12-10T04:52:29;-0.20;99.90
12557;DHT22;6344;49.932;8.308;2022-12-10T04:54:57;-0.30;99.90
12557;DHT22;6344;49.932;8.308;2022-12-10T04:57:25;-0.20;99.90
12557;DHT22;6344;49.932;8.308;2022-12-10T04:59:52;-0.20;99.90
12557;DHT22;6344;49.932;8.308;2022-12-10T05:02:23;-0.40;99.90
12557;DHT22;6344;49.932;8.308;2022-12-10T05:04:51;-0.40;99.90
12557;DHT22;6344;49.932;8.308;2022-12-10T05:07:18;-0.40;99.90
12557;DHT22;6344;49.932;8.308;2022-12-10T05:09:45;-0.50;99.90
12557;DHT22;6344;49.932;8.308;2022-12-10T05:12:13;-0.50;99.90
12557;DHT22;6344;49.932;8.308;2022-12-10T05:14:46;-0.40;99.90
12557;DHT22;6344;49.932;8.308;2022-12-10T05:17:19;-0.40;99.90
12557;DHT22;6344;49.932;8.308;2022-12-10T05:19:52;-0.30;99.90
12557;DHT22;6344;49.932;8.308;2022-12-10T05:22:35;-0.20;99.90
12557;DHT22;6344;49.932;8.308;2022-12-10T05:25:20;-0.30;99.90
12557;DHT22;6344;49.932;8.308;2022-12-10T05:27:47;-0.30;99.90
12557;DHT22;6344;49.932;8.308;2022-12-10T05:30:20;-0.50;99.90
12557;DHT22;6344;49.932;8.308;2022-12-10T05:32:47;-0.50;99.90
12557;DHT22;6344;49.932;8.308;2022-12-10T05:35:15;-0.50;99.90
12557;DHT22;6344;49.932;8.308;2022-12-10T05:37:41;-0.60;99.90
12557;DHT22;6344;49.932;8.308;2022-12-10T05:40:09;-0.60;99.90
12557;DHT22;6344;49.932;8.308;2022-12-10T05:42:38;-0.70;99.90
12557;DHT22;6344;49.932;8.308;2022-12-10T05:45:06;-0.70;99.90
12557;DHT22;6344;49.932;8.308;2022-12-10T05:50:26;-1.00;99.90
12557;DHT22;6344;49.932;8.308;2022-12-10T05:52:52;-1.30;99.90
12557;DHT22;6344;49.932;8.308;2022-12-10T05:55:21;-1.30;99.90
12557;DHT22;6344;49.932;8.308;2022-12-10T05:57:52;-1.50;99.90
12557;DHT22;6344;49.932;8.308;2022-12-10T06:00:19;-1.70;99.90
12557;DHT22;6344;49.932;8.308;2022-12-10T06:02:48;-1.90;99.90
12557;DHT22;6344;49.932;8.308;2022-12-10T06:05:21;-1.70;99.90
12557;DHT22;6344;49.932;8.308;2022-12-10T06:07:52;-1.60;99.90
12557;DHT22;6344;49.932;8.308;2022-12-10T06:10:19;-1.50;99.90
12557;DHT22;6344;49.932;8.308;2022-12-10T06:12:46;-1.50;99.90
12557;DHT22;6344;49.932;8.308;2022-12-10T06:15:12;-1.50;99.90
12557;DHT22;6344;49.932;8.308;2022-12-10T06:17:39;-1.50;99.90
12557;DHT22;6344;49.932;8.308;2022-12-10T06:20:11;-1.50;99.90
12557;DHT22;6344;49.932;8.308;2022-12-10T06:22:44;-1.60;99.90
12557;DHT22;6344;49.932;8.308;2022-12-10T06:25:19;-1.70;99.90
12557;DHT22;6344;49.932;8.308;2022-12-10T06:27:54;-1.70;99.90
12557;DHT22;6344;49.932;8.308;2022-12-10T06:30:22;-1.70;99.90
12557;DHT22;6344;49.932;8.308;2022-12-10T06:32:51;-1.80;99.90
12557;DHT22;6344;49.932;8.308;2022-12-10T06:35:18;-1.80;99.90
12557;DHT22;6344;49.932;8.308;2022-12-10T06:37:52;-1.90;99.90
12557;DHT22;6344;49.932;8.308;2022-12-10T06:40:20;-2.30;99.90
12557;DHT22;6344;49.932;8.308;2022-12-10T06:42:50;-2.40;99.90
12557;DHT22;6344;49.932;8.308;2022-12-10T06:45:21;-2.60;99.90
12557;DHT22;6344;49.932;8.308;2022-12-10T06:47:49;-2.70;99.90
12557;DHT22;6344;49.932;8.308;2022-12-10T06:50:16;-2.70;99.90
12557;DHT22;6344;49.932;8.308;2022-12-10T06:52:44;-2.60;99.90
12557;DHT22;6344;49.932;8.308;2022-12-10T06:55:11;-2.60;99.90
12557;DHT22;6344;49.932;8.308;2022-12-10T06:57:41;-2.60;99.90
12557;DHT22;6344;49.932;8.308;2022-12-10T07:00:12;-2.70;99.90
12557;DHT22;6344;49.932;8.308;2022-12-10T07:02:49;-2.50;99.90
12557;DHT22;6344;49.932;8.308;2022-12-10T07:05:18;-2.40;99.90
12557;DHT22;6344;49.932;8.308;2022-12-10T07:07:49;-2.20;99.90
12557;DHT22;6344;49.932;8.308;2022-12-10T07:10:16;-2.00;99.90
12557;DHT22;6344;49.932;8.308;2022-12-10T07:12:46;-1.90;99.90
12557;DHT22;6344;49.932;8.308;2022-12-10T07:15:12;-1.80;99.90
12557;DHT22;6344;49.932;8.308;2022-12-10T07:17:43;-1.80;99.90
12557;DHT22;6344;49.932;8.308;2022-12-10T07:20:10;-1.80;99.90
12557;DHT22;6344;49.932;8.308;2022-12-10T07:22:43;-1.70;99.90
12557;DHT22;6344;49.932;8.308;2022-12-10T07:25:25;-1.60;99.90
12557;DHT22;6344;49.932;8.308;2022-12-10T07:27:56;-1.50;99.90
12557;DHT22;6344;49.932;8.308;2022-12-10T07:30:26;-1.50;99.90
12557;DHT22;6344;49.932;8.308;2022-12-10T07:32:57;-1.50;99.90
12557;DHT22;6344;49.932;8.308;2022-12-10T07:35:27;-1.50;99.90
12557;DHT22;6344;49.932;8.308;2022-12-10T07:37:54;-1.40;99.90
12557;DHT22;6344;49.932;8.308;2022-12-10T07:40:20;-1.30;99.90
12557;DHT22;6344;49.932;8.308;2022-12-10T07:42:47;-1.40;99.90
12557;DHT22;6344;49.932;8.308;2022-12-10T07:45:15;-1.30;99.90
12557;DHT22;6344;49.932;8.308;2022-12-10T07:47:50;-1.30;99.90
12557;DHT22;6344;49.932;8.308;2022-12-10T07:50:20;-1.30;99.90
12557;DHT22;6344;49.932;8.308;2022-12-10T07:52:47;-1.20;99.90
12557;DHT22;6344;49.932;8.308;2022-12-10T07:55:15;-1.20;99.90
12557;DHT22;6344;49.932;8.308;2022-12-10T07:57:45;-1.10;99.90
12557;DHT22;6344;49.932;8.308;2022-12-10T08:00:15;-1.00;99.90
12557;DHT22;6344;49.932;8.308;2022-12-10T08:02:45;-1.00;99.90
12557;DHT22;6344;49.932;8.308;2022-12-10T08:05:16;-0.90;99.90
12557;DHT22;6344;49.932;8.308;2022-12-10T08:07:47;-0.90;99.90
12557;DHT22;6344;49.932;8.308;2022-12-10T08:10:20;-0.80;99.90
12557;DHT22;6344;49.932;8.308;2022-12-10T08:12:49;-0.70;99.90
12557;DHT22;6344;49.932;8.308;2022-12-10T08:15:22;-0.70;99.90
12557;DHT22;6344;49.932;8.308;2022-12-10T08:17:53;-0.60;99.90
12557;DHT22;6344;49.932;8.308;2022-12-10T08:20:21;-0.50;99.90
12557;DHT22;6344;49.932;8.308;2022-12-10T08:22:50;-0.50;99.90
12557;DHT22;6344;49.932;8.308;2022-12-10T08:25:17;-0.40;99.90
12557;DHT22;6344;49.932;8.308;2022-12-10T08:27:49;-0.40;99.90
12557;DHT22;6344;49.932;8.308;2022-12-10T08:30:17;-0.30;99.90
12557;DHT22;6344;49.932;8.308;2022-12-10T08:32:58;-0.30;99.90
12557;DHT22;6344;49.932;8.308;2022-12-10T08:35:26;-0.20;99.90
12557;DHT22;6344;49.932;8.308;2022-12-10T08:37:57;-0.10;99.90
12557;DHT22;6344;49.932;8.308;2022-12-10T08:40:28;-0.10;99.90
12557;DHT22;6344;49.932;8.308;2022-12-10T08:42:57;0.10;99.90
12557;DHT22;6344;49.932;8.308;2022-12-10T08:45:23;0.10;99.90
12557;DHT22;6344;49.932;8.308;2022-12-10T08:47:52;0.30;99.90
12557;DHT22;6344;49.932;8.308;2022-12-10T08:50:20;0.40;99.90
12557;DHT22;6344;49.932;8.308;2022-12-10T08:52:50;0.30;99.90
12557;DHT22;6344;49.932;8.308;2022-12-10T08:55:18;0.40;99.90
12557;DHT22;6344;49.932;8.308;2022-12-10T08:57:51;0.50;99.90
12557;DHT22;6344;49.932;8.308;2022-12-10T09:00:24;0.50;99.90
12557;DHT22;6344;49.932;8.308;2022-12-10T09:02:54;0.50;99.90
12557;DHT22;6344;49.932;8.308;2022-12-10T09:05:25;0.60;99.90
12557;DHT22;6344;49.932;8.308;2022-12-10T09:07:54;0.50;99.90
12557;DHT22;6344;49.932;8.308;2022-12-10T09:10:25;0.70;99.90
12557;DHT22;6344;49.932;8.308;2022-12-10T09:12:58;0.60;99.90
12557;DHT22;6344;49.932;8.308;2022-12-10T09:15:33;0.70;99.90
12557;DHT22;6344;49.932;8.308;2022-12-10T09:18:00;0.80;99.90
12557;DHT22;6344;49.932;8.308;2022-12-10T09:20:33;0.80;99.90
12557;DHT22;6344;49.932;8.308;2022-12-10T09:23:02;0.80;99.90
12557;DHT22;6344;49.932;8.308;2022-12-10T09:25:29;0.70;99.90
12557;DHT22;6344;49.932;8.308;2022-12-10T09:27:55;0.70;99.90
12557;DHT22;6344;49.932;8.308;2022-12-10T09:30:22;0.70;99.90
12557;DHT22;6344;49.932;8.308;2022-12-10T09:32:50;0.70;99.90
12557;DHT22;6344;49.932;8.308;2022-12-10T09:35:17;0.70;99.90
12557;DHT22;6344;49.932;8.308;2022-12-10T09:37:45;0.70;99.90
12557;DHT22;6344;49.932;8.308;2022-12-10T09:40:15;0.70;99.90
12557;DHT22;6344;49.932;8.308;2022-12-10T09:42:49;0.80;99.90
12557;DHT22;6344;49.932;8.308;2022-12-10T09:45:26;1.10;99.90
12557;DHT22;6344;49.932;8.308;2022-12-10T09:48:05;1.30;99.90
12557;DHT22;6344;49.932;8.308;2022-12-10T09:50:47;1.70;99.90
12557;DHT22;6344;49.932;8.308;2022-12-10T09:53:18;1.90;99.90
12557;DHT22;6344;49.932;8.308;2022-12-10T09:55:51;2.20;99.90
12557;DHT22;6344;49.932;8.308;2022-12-10T09:58:20;2.30;99.90
12557;DHT22;6344;49.932;8.308;2022-12-10T10:00:54;2.50;99.90
12557;DHT22;6344;49.932;8.308;2022-12-10T10:03:26;2.80;99.90
12557;DHT22;6344;49.932;8.308;2022-12-10T10:05:59;3.10;99.90
12557;DHT22;6344;49.932;8.308;2022-12-10T10:08:34;3.40;99.90
12557;DHT22;6344;49.932;8.308;2022-12-10T10:11:08;3.50;83.50
12557;DHT22;6344;49.932;8.308;2022-12-10T10:13:42;3.60;1.00
12557;DHT22;6344;49.932;8.308;2022-12-10T10:16:18;3.20;1.00
12557;DHT22;6344;49.932;8.308;2022-12-10T10:18:55;3.20;1.00
12557;DHT22;6344;49.932;8.308;2022-12-10T10:21:26;3.20;1.00
12557;DHT22;6344;49.932;8.308;2022-12-10T10:23:59;3.20;1.00
12557;DHT22;6344;49.932;8.308;2022-12-10T10:26:26;3.30;1.00
12557;DHT22;6344;49.932;8.308;2022-12-10T10:28:57;3.00;1.00
12557;DHT22;6344;49.932;8.308;2022-12-10T10:31:29;3.20;1.00
12557;DHT22;6344;49.932;8.308;2022-12-10T10:34:01;3.30;1.00
12557;DHT22;6344;49.932;8.308;2022-12-10T10:36:29;3.50;1.00
12557;DHT22;6344;49.932;8.308;2022-12-10T10:39:09;3.50;1.00
12557;DHT22;6344;49.932;8.308;2022-12-10T10:41:39;3.30;1.00
12557;DHT22;6344;49.932;8.308;2022-12-10T10:44:16;3.00;1.00
12557;DHT22;6344;49.932;8.308;2022-12-10T10:46:48;2.70;1.00
12557;DHT22;6344;49.932;8.308;2022-12-10T10:49:23;2.50;1.00
12557;DHT22;6344;49.932;8.308;2022-12-10T10:51:53;2.40;1.00
12557;DHT22;6344;49.932;8.308;2022-12-10T10:54:34;2.40;1.00
12557;DHT22;6344;49.932;8.308;2022-12-10T10:57:12;2.30;1.00
12557;DHT22;6344;49.932;8.308;2022-12-10T10:59:42;2.20;2.80
12557;DHT22;6344;49.932;8.308;2022-12-10T11:02:23;2.20;1.00
12557;DHT22;6344;49.932;8.308;2022-12-10T11:04:53;2.30;1.00
12557;DHT22;6344;49.932;8.308;2022-12-10T11:07:34;2.20;3.50
12557;DHT22;6344;49.932;8.308;2022-12-10T11:10:16;2.20;13.00
12557;DHT22;6344;49.932;8.308;2022-12-10T11:12:56;2.30;21.70
12557;DHT22;6344;49.932;8.308;2022-12-10T11:15:32;2.40;14.50
12557;DHT22;6344;49.932;8.308;2022-12-10T11:18:18;2.70;1.00
12557;DHT22;6344;49.932;8.308;2022-12-10T11:21:03;2.80;1.00
12557;DHT22;6344;49.932;8.308;2022-12-10T11:23:39;3.20;1.00
12557;DHT22;6344;49.932;8.308;2022-12-10T11:26:34;3.30;1.00
12557;DHT22;6344;49.932;8.308;2022-12-10T11:29:26;3.40;1.00
12557;DHT22;6344;49.932;8.308;2022-12-10T11:32:07;3.00;1.00
12557;DHT22;6344;49.932;8.308;2022-12-10T11:34:52;3.10;1.00
12557;DHT22;6344;49.932;8.308;2022-12-10T11:37:31;2.80;1.00
12557;DHT22;6344;49.932;8.308;2022-12-10T11:43:11;2.80;1.00
12557;DHT22;6344;49.932;8.308;2022-12-10T11:45:48;2.70;1.00
12557;DHT22;6344;49.932;8.308;2022-12-10T11:48:32;3.00;1.00
12557;DHT22;6344;49.932;8.308;2022-12-10T11:51:08;3.40;1.00
12557;DHT22;6344;49.932;8.308;2022-12-10T11:53:51;3.30;1.00
12557;DHT22;6344;49.932;8.308;2022-12-10T11:56:26;3.30;1.00
12557;DHT22;6344;49.932;8.308;2022-12-10T11:59:03;3.50;1.00
12557;DHT22;6344;49.932;8.308;2022-12-10T12:01:44;4.20;1.00
12557;DHT22;6344;49.932;8.308;2022-12-10T12:04:25;4.90;1.00
12557;DHT22;6344;49.932;8.308;2022-12-10T12:07:05;5.00;1.00
12557;DHT22;6344;49.932;8.308;2022-12-10T12:09:52;5.60;1.00
12557;DHT22;6344;49.932;8.308;2022-12-10T12:12:30;5.50;1.00
12557;DHT22;6344;49.932;8.308;2022-12-10T12:15:08;4.90;1.00
12557;DHT22;6344;49.932;8.308;2022-12-10T12:17:42;4.40;1.00
12557;DHT22;6344;49.932;8.308;2022-12-10T12:20:16;4.10;1.00
12557;DHT22;6344;49.932;8.308;2022-12-10T12:22:46;3.90;1.00
12557;DHT22;6344;49.932;8.308;2022-12-10T12:25:23;3.70;1.00
12557;DHT22;6344;49.932;8.308;2022-12-10T12:27:55;3.70;1.00
12557;DHT22;6344;49.932;8.308;2022-12-10T12:30:36;3.80;1.00
12557;DHT22;6344;49.932;8.308;2022-12-10T12:33:08;3.70;1.00
12557;DHT22;6344;49.932;8.308;2022-12-10T12:35:40;3.70;1.00
12557;DHT22;6344;49.932;8.308;2022-12-10T12:38:21;3.50;1.00
12557;DHT22;6344;49.932;8.308;2022-12-10T12:40:59;3.70;1.00
12557;DHT22;6344;49.932;8.308;2022-12-10T12:43:37;4.00;1.00
12557;DHT22;6344;49.932;8.308;2022-12-10T12:46:18;4.30;1.00
12557;DHT22;6344;49.932;8.308;2022-12-10T12:48:51;4.90;1.00
12557;DHT22;6344;49.932;8.308;2022-12-10T12:51:28;5.10;1.00
12557;DHT22;6344;49.932;8.308;2022-12-10T12:53:56;4.90;1.00
12557;DHT22;6344;49.932;8.308;2022-12-10T12:56:30;4.80;1.00
12557;DHT22;6344;49.932;8.308;2022-12-10T12:59:16;4.30;1.00
12557;DHT22;6344;49.932;8.308;2022-12-10T13:01:53;4.10;1.00
12557;DHT22;6344;49.932;8.308;2022-12-10T13:04:24;4.00;1.00
12557;DHT22;6344;49.932;8.308;2022-12-10T13:07:09;3.70;1.00
12557;DHT22;6344;49.932;8.308;2022-12-10T13:09:43;3.60;1.00
12557;DHT22;6344;49.932;8.308;2022-12-10T13:12:28;3.50;1.00
12557;DHT22;6344;49.932;8.308;2022-12-10T13:15:13;3.30;1.00
12557;DHT22;6344;49.932;8.308;2022-12-10T13:18:03;3.10;1.00
12557;DHT22;6344;49.932;8.308;2022-12-10T13:20:40;3.00;1.00
12557;DHT22;6344;49.932;8.308;2022-12-10T13:23:33;3.00;1.00
12557;DHT22;6344;49.932;8.308;2022-12-10T13:26:23;3.80;1.00
12557;DHT22;6344;49.932;8.308;2022-12-10T13:28:56;4.70;1.00
12557;DHT22;6344;49.932;8.308;2022-12-10T13:31:40;5.40;1.00
12557;DHT22;6344;49.932;8.308;2022-12-10T13:34:34;6.40;1.00
12557;DHT22;6344;49.932;8.308;2022-12-10T13:37:26;6.30;1.00
12557;DHT22;6344;49.932;8.308;2022-12-10T13:40:12;6.10;1.00
12557;DHT22;6344;49.932;8.308;2022-12-10T13:42:47;6.20;1.00
12557;DHT22;6344;49.932;8.308;2022-12-10T13:45:42;5.90;1.00
12557;DHT22;6344;49.932;8.308;2022-12-10T13:48:27;5.30;1.00
12557;DHT22;6344;49.932;8.308;2022-12-10T13:51:10;4.70;1.00
12557;DHT22;6344;49.932;8.308;2022-12-10T13:53:48;4.20;1.00
12557;DHT22;6344;49.932;8.308;2022-12-10T13:56:25;3.80;1.00
12557;DHT22;6344;49.932;8.308;2022-12-10T13:59:05;3.30;1.00
12557;DHT22;6344;49.932;8.308;2022-12-10T14:01:51;3.30;1.00
12557;DHT22;6344;49.932;8.308;2022-12-10T14:04:34;3.20;1.00
12557;DHT22;6344;49.932;8.308;2022-12-10T14:07:11;3.00;1.00
12557;DHT22;6344;49.932;8.308;2022-12-10T14:09:45;2.90;1.00
12557;DHT22;6344;49.932;8.308;2022-12-10T14:12:22;2.80;1.00
12557;DHT22;6344;49.932;8.308;2022-12-10T14:14:54;2.80;1.00
12557;DHT22;6344;49.932;8.308;2022-12-10T14:17:28;2.80;1.00
12557;DHT22;6344;49.932;8.308;2022-12-10T14:20:03;2.70;1.00
12557;DHT22;6344;49.932;8.308;2022-12-10T14:22:34;2.60;1.00
12557;DHT22;6344;49.932;8.308;2022-12-10T14:25:05;2.50;1.00
12557;DHT22;6344;49.932;8.308;2022-12-10T14:27:36;2.10;1.00
12557;DHT22;6344;49.932;8.308;2022-12-10T14:30:15;2.00;1.00
12557;DHT22;6344;49.932;8.308;2022-12-10T14:32:43;1.80;1.00
12557;DHT22;6344;49.932;8.308;2022-12-10T14:35:17;1.80;1.00
12557;DHT22;6344;49.932;8.308;2022-12-10T14:37:48;1.70;1.00
12557;DHT22;6344;49.932;8.308;2022-12-10T14:40:22;1.60;1.00
12557;DHT22;6344;49.932;8.308;2022-12-10T14:42:50;1.40;1.00
12557;DHT22;6344;49.932;8.308;2022-12-10T14:45:19;1.20;1.00
12557;DHT22;6344;49.932;8.308;2022-12-10T14:47:47;1.00;1.00
12557;DHT22;6344;49.932;8.308;2022-12-10T14:50:16;0.90;1.00
12557;DHT22;6344;49.932;8.308;2022-12-10T14:52:57;0.80;14.30
12557;DHT22;6344;49.932;8.308;2022-12-10T14:55:28;0.80;37.10
12557;DHT22;6344;49.932;8.308;2022-12-10T14:58:02;0.70;57.60
12557;DHT22;6344;49.932;8.308;2022-12-10T15:00:33;0.70;75.50
12557;DHT22;6344;49.932;8.308;2022-12-10T15:03:07;0.60;87.30
12557;DHT22;6344;49.932;8.308;2022-12-10T15:05:36;0.60;90.00
12557;DHT22;6344;49.932;8.308;2022-12-10T15:08:14;0.50;99.90
12557;DHT22;6344;49.932;8.308;2022-12-10T15:10:44;0.50;99.90
12557;DHT22;6344;49.932;8.308;2022-12-10T15:13:25;0.50;90.10
12557;DHT22;6344;49.932;8.308;2022-12-10T15:16:04;0.50;91.60
12557;DHT22;6344;49.932;8.308;2022-12-10T15:18:32;0.40;99.90
12557;DHT22;6344;49.932;8.308;2022-12-10T15:21:10;0.40;99.90
12557;DHT22;6344;49.932;8.308;2022-12-10T15:23:49;0.30;99.90
12557;DHT22;6344;49.932;8.308;2022-12-10T15:26:28;0.20;99.90
12557;DHT22;6344;49.932;8.308;2022-12-10T15:29:15;0.20;99.90
12557;DHT22;6344;49.932;8.308;2022-12-10T15:31:42;0.20;99.90
12557;DHT22;6344;49.932;8.308;2022-12-10T15:34:14;0.20;99.90
12557;DHT22;6344;49.932;8.308;2022-12-10T15:36:48;0.20;99.90
12557;DHT22;6344;49.932;8.308;2022-12-10T15:39:27;0.20;99.90
12557;DHT22;6344;49.932;8.308;2022-12-10T15:41:55;0.20;99.90
12557;DHT22;6344;49.932;8.308;2022-12-10T15:44:36;0.20;99.90
12557;DHT22;6344;49.932;8.308;2022-12-10T15:47:14;0.20;99.90
12557;DHT22;6344;49.932;8.308;2022-12-10T15:49:47;0.20;99.90
12557;DHT22;6344;49.932;8.308;2022-12-10T15:52:20;0.10;99.90
12557;DHT22;6344;49.932;8.308;2022-12-10T15:54:50;0.10;99.90
12557;DHT22;6344;49.932;8.308;2022-12-10T15:57:20;0.00;99.90
12557;DHT22;6344;49.932;8.308;2022-12-10T15:59:48;-0.20;99.90
12557;DHT22;6344;49.932;8.308;2022-12-10T16:02:25;-0.30;99.90
12557;DHT22;6344;49.932;8.308;2022-12-10T16:04:53;-0.50;99.90
12557;DHT22;6344;49.932;8.308;2022-12-10T16:07:20;-0.60;99.90
12557;DHT22;6344;49.932;8.308;2022-12-10T16:09:48;-0.70;99.90
12557;DHT22;6344;49.932;8.308;2022-12-10T16:12:17;-0.80;99.90
12557;DHT22;6344;49.932;8.308;2022-12-10T16:14:50;-0.80;99.90
12557;DHT22;6344;49.932;8.308;2022-12-10T16:17:21;-0.80;99.90
12557;DHT22;6344;49.932;8.308;2022-12-10T16:19:48;-0.80;99.90
12557;DHT22;6344;49.932;8.308;2022-12-10T16:22:18;-0.80;99.90
12557;DHT22;6344;49.932;8.308;2022-12-10T16:24:44;-0.80;99.90
12557;DHT22;6344;49.932;8.308;2022-12-10T16:27:23;-0.80;99.90
12557;DHT22;6344;49.932;8.308;2022-12-10T16:29:52;-0.80;99.90
12557;DHT22;6344;49.932;8.308;2022-12-10T16:32:21;-0.80;99.90
12557;DHT22;6344;49.932;8.308;2022-12-10T16:34:55;-0.80;99.90
12557;DHT22;6344;49.932;8.308;2022-12-10T16:37:26;-0.90;99.90
12557;DHT22;6344;49.932;8.308;2022-12-10T16:39:53;-0.90;99.90
12557;DHT22;6344;49.932;8.308;2022-12-10T16:42:19;-1.00;99.90
12557;DHT22;6344;49.932;8.308;2022-12-10T16:44:50;-1.00;99.90
12557;DHT22;6344;49.932;8.308;2022-12-10T16:47:19;-1.10;99.90